sensor_id;sensor_type;location;lat;lon;timestamp;P1;durP1;ratioP1;P2;durP2;ratioP2
45728;SDS011;31439;53.512;10.206;2024-03-23T00:55:41;23.58;;;4.70;;
45728;SDS011;31439;53.512;10.206;2024-03-23T00:58:07;28.20;;;4.50;;
45728;SDS011;31439;53.512;10.206;2024-03-23T01:00:33;26.77;;;4.15;;
45728;SDS011;31439;53.512;10.206;2024-03-23T01:02:59;31.05;;;5.25;;
45728;SDS011;31439;53.512;10.206;2024-03-23T01:05:25;24.88;;;4.95;;
45728;SDS011;31439;53.512;10.206;2024-03-23T01:07:51;24.80;;;4.32;;
45728;SDS011;31439;53.512;10.206;2024-03-23T01:10:17;27.55;;;4.70;;
45728;SDS011;31439;53.512;10.206;2024-03-23T01:12:42;31.83;;;5.68;;
45728;SDS011;31439;53.512;10.206;2024-03-23T01:15:08;30.38;;;4.97;;
45728;SDS011;31439;53.512;10.206;2024-03-23T01:17:34;27.55;;;4.70;;
45728;SDS011;31439;53.512;10.206;2024-03-23T01:19:59;31.77;;;5.65;;
45728;SDS011;31439;53.512;10.206;2024-03-23T01:22:26;25.55;;;4.80;;
45728;SDS011;31439;53.512;10.206;2024-03-23T01:24:51;26.98;;;4.53;;
45728;SDS011;31439;53.512;10.206;2024-03-23T01:27:17;29.65;;;4.82;;
45728;SDS011;31439;53.512;10.206;2024-03-23T01:29:43;25.25;;;4.68;;
45728;SDS011;31439;53.512;10.206;2024-03-23T01:32:09;25.08;;;5.43;;
45728;SDS011;31439;53.512;10.206;2024-03-23T01:34:34;26.30;;;4.63;;
45728;SDS011;31439;53.512;10.206;2024-03-23T01:37:00;32.97;;;5.47;;
45728;SDS011;31439;53.512;10.206;2024-03-23T01:39:26;22.10;;;4.45;;
45728;SDS011;31439;53.512;10.206;2024-03-23T01:41:52;29.83;;;5.57;;
45728;SDS011;31439;53.512;10.206;2024-03-23T01:44:18;26.02;;;4.28;;
45728;SDS011;31439;53.512;10.206;2024-03-23T01:46:44;29.02;;;4.88;;
45728;SDS011;31439;53.512;10.206;2024-03-23T01:49:10;24.98;;;4.53;;
45728;SDS011;31439;53.512;10.206;2024-03-23T01:51:36;28.00;;;4.25;;
45728;SDS011;31439;53.512;10.206;2024-03-23T01:54:03;27.70;;;5.70;;
45728;SDS011;31439;53.512;10.206;2024-03-23T01:56:33;26.00;;;4.35;;
45728;SDS011;31439;53.512;10.206;2024-03-23T01:59:02;29.77;;;5.10;;
45728;SDS011;31439;53.512;10.206;2024-03-23T02:01:28;27.13;;;4.70;;
45728;SDS011;31439;53.512;10.206;2024-03-23T02:03:54;25.17;;;4.75;;
45728;SDS011;31439;53.512;10.206;2024-03-23T02:06:20;27.95;;;4.45;;
45728;SDS011;31439;53.512;10.206;2024-03-23T02:08:47;33.05;;;5.40;;
45728;SDS011;31439;53.512;10.206;2024-03-23T02:11:13;29.65;;;5.20;;
45728;SDS011;31439;53.512;10.206;2024-03-23T02:13:39;25.05;;;4.32;;
45728;SDS011;31439;53.512;10.206;2024-03-23T02:16:05;31.60;;;4.78;;
45728;SDS011;31439;53.512;10.206;2024-03-23T02:18:31;29.80;;;4.95;;
45728;SDS011;31439;53.512;10.206;2024-03-23T02:21:00;25.83;;;4.43;;
45728;SDS011;31439;53.512;10.206;2024-03-23T02:23:25;33.97;;;5.25;;
45728;SDS011;31439;53.512;10.206;2024-03-23T02:25:51;25.17;;;4.88;;
45728;SDS011;31439;53.512;10.206;2024-03-23T02:28:18;25.92;;;4.55;;
45728;SDS011;31439;53.512;10.206;2024-03-23T02:30:44;30.40;;;4.78;;
45728;SDS011;31439;53.512;10.206;2024-03-23T02:33:10;32.42;;;5.75;;
45728;SDS011;31439;53.512;10.206;2024-03-23T02:35:35;32.35;;;4.85;;
45728;SDS011;31439;53.512;10.206;2024-03-23T02:38:01;22.35;;;4.55;;
45728;SDS011;31439;53.512;10.206;2024-03-23T02:40:27;32.70;;;4.55;;
45728;SDS011;31439;53.512;10.206;2024-03-23T02:42:53;38.53;;;5.15;;
45728;SDS011;31439;53.512;10.206;2024-03-23T02:45:19;26.45;;;4.70;;
45728;SDS011;31439;53.512;10.206;2024-03-23T02:47:45;32.47;;;5.15;;
45728;SDS011;31439;53.512;10.206;2024-03-23T02:50:11;28.23;;;4.32;;
45728;SDS011;31439;53.512;10.206;2024-03-23T02:52:37;26.52;;;4.72;;
45728;SDS011;31439;53.512;10.206;2024-03-23T02:55:03;33.25;;;5.40;;
45728;SDS011;31439;53.512;10.206;2024-03-23T02:57:29;21.15;;;4.60;;
45728;SDS011;31439;53.512;10.206;2024-03-23T02:59:55;28.85;;;4.72;;
45728;SDS011;31439;53.512;10.206;2024-03-23T03:02:21;27.48;;;5.18;;
45728;SDS011;31439;53.512;10.206;2024-03-23T03:04:47;21.08;;;4.30;;
45728;SDS011;31439;53.512;10.206;2024-03-23T03:07:13;29.30;;;4.50;;
45728;SDS011;31439;53.512;10.206;2024-03-23T03:09:39;30.45;;;5.15;;
45728;SDS011;31439;53.512;10.206;2024-03-23T03:12:08;30.13;;;5.28;;
45728;SDS011;31439;53.512;10.206;2024-03-23T03:14:34;31.67;;;4.50;;
45728;SDS011;31439;53.512;10.206;2024-03-23T03:16:59;32.65;;;5.20;;
45728;SDS011;31439;53.512;10.206;2024-03-23T03:19:25;27.50;;;4.47;;
45728;SDS011;31439;53.512;10.206;2024-03-23T03:21:51;25.50;;;5.45;;
45728;SDS011;31439;53.512;10.206;2024-03-23T03:24:17;31.83;;;4.57;;
45728;SDS011;31439;53.512;10.206;2024-03-23T03:26:42;23.88;;;4.43;;
45728;SDS011;31439;53.512;10.206;2024-03-23T03:29:08;32.13;;;4.97;;
45728;SDS011;31439;53.512;10.206;2024-03-23T03:31:35;25.77;;;4.72;;
45728;SDS011;31439;53.512;10.206;2024-03-23T03:34:01;28.15;;;5.00;;
45728;SDS011;31439;53.512;10.206;2024-03-23T03:36:27;23.75;;;4.03;;
45728;SDS011;31439;53.512;10.206;2024-03-23T03:38:53;27.55;;;4.53;;
45728;SDS011;31439;53.512;10.206;2024-03-23T03:41:19;23.65;;;4.00;;
45728;SDS011;31439;53.512;10.206;2024-03-23T03:43:45;25.65;;;4.50;;
45728;SDS011;31439;53.512;10.206;2024-03-23T03:46:10;29.00;;;4.28;;
45728;SDS011;31439;53.512;10.206;2024-03-23T03:48:36;23.20;;;3.97;;
45728;SDS011;31439;53.512;10.206;2024-03-23T03:51:02;21.88;;;4.80;;
45728;SDS011;31439;53.512;10.206;2024-03-23T03:53:28;27.48;;;4.68;;
45728;SDS011;31439;53.512;10.206;2024-03-23T03:55:55;32.17;;;4.70;;
45728;SDS011;31439;53.512;10.206;2024-03-23T03:58:21;33.08;;;4.38;;
45728;SDS011;31439;53.512;10.206;2024-03-23T04:00:46;28.38;;;4.20;;
45728;SDS011;31439;53.512;10.206;2024-03-23T04:03:12;25.27;;;4.32;;
45728;SDS011;31439;53.512;10.206;2024-03-23T04:05:38;27.33;;;4.35;;
45728;SDS011;31439;53.512;10.206;2024-03-23T04:08:04;26.02;;;4.55;;
45728;SDS011;31439;53.512;10.206;2024-03-23T04:10:30;27.63;;;4.40;;
45728;SDS011;31439;53.512;10.206;2024-03-23T04:12:56;24.95;;;4.43;;
45728;SDS011;31439;53.512;10.206;2024-03-23T04:15:22;19.85;;;3.97;;
45728;SDS011;31439;53.512;10.206;2024-03-23T04:17:48;25.48;;;4.53;;
45728;SDS011;31439;53.512;10.206;2024-03-23T04:20:14;19.63;;;4.30;;
45728;SDS011;31439;53.512;10.206;2024-03-23T04:22:42;27.33;;;4.68;;
45728;SDS011;31439;53.512;10.206;2024-03-23T04:25:08;16.73;;;3.67;;
45728;SDS011;31439;53.512;10.206;2024-03-23T04:27:35;25.63;;;3.90;;
45728;SDS011;31439;53.512;10.206;2024-03-23T04:30:02;23.60;;;4.13;;
45728;SDS011;31439;53.512;10.206;2024-03-23T04:32:30;23.45;;;4.07;;
45728;SDS011;31439;53.512;10.206;2024-03-23T04:34:56;20.50;;;3.95;;
45728;SDS011;31439;53.512;10.206;2024-03-23T04:37:22;26.33;;;4.47;;
45728;SDS011;31439;53.512;10.206;2024-03-23T04:39:48;20.88;;;4.18;;
45728;SDS011;31439;53.512;10.206;2024-03-23T04:42:17;31.88;;;4.25;;
45728;SDS011;31439;53.512;10.206;2024-03-23T04:44:43;26.70;;;4.28;;
45728;SDS011;31439;53.512;10.206;2024-03-23T04:47:09;23.33;;;4.40;;
45728;SDS011;31439;53.512;10.206;2024-03-23T04:49:35;27.13;;;4.30;;
45728;SDS011;31439;53.512;10.206;2024-03-23T04:52:02;25.00;;;4.40;;
45728;SDS011;31439;53.512;10.206;2024-03-23T04:54:29;27.13;;;4.63;;
45728;SDS011;31439;53.512;10.206;2024-03-23T04:56:55;30.17;;;4.65;;
45728;SDS011;31439;53.512;10.206;2024-03-23T04:59:21;31.33;;;5.82;;
45728;SDS011;31439;53.512;10.206;2024-03-23T05:01:47;25.23;;;4.82;;
45728;SDS011;31439;53.512;10.206;2024-03-23T05:04:13;24.25;;;4.80;;
45728;SDS011;31439;53.512;10.206;2024-03-23T05:06:38;23.33;;;4.45;;
45728;SDS011;31439;53.512;10.206;2024-03-23T05:09:04;30.35;;;4.82;;
45728;SDS011;31439;53.512;10.206;2024-03-23T05:11:36;28.75;;;4.57;;
45728;SDS011;31439;53.512;10.206;2024-03-23T05:14:05;24.80;;;4.57;;
45728;SDS011;31439;53.512;10.206;2024-03-23T05:16:30;23.98;;;4.15;;
45728;SDS011;31439;53.512;10.206;2024-03-23T05:18:56;21.60;;;4.50;;
45728;SDS011;31439;53.512;10.206;2024-03-23T05:21:22;29.13;;;4.20;;
45728;SDS011;31439;53.512;10.206;2024-03-23T05:23:48;23.05;;;4.22;;
45728;SDS011;31439;53.512;10.206;2024-03-23T05:26:14;22.55;;;4.35;;
45728;SDS011;31439;53.512;10.206;2024-03-23T05:28:39;22.90;;;4.63;;
45728;SDS011;31439;53.512;10.206;2024-03-23T05:31:05;20.65;;;4.00;;
45728;SDS011;31439;53.512;10.206;2024-03-23T05:33:31;30.40;;;5.13;;
45728;SDS011;31439;53.512;10.206;2024-03-23T05:35:57;20.75;;;4.00;;
45728;SDS011;31439;53.512;10.206;2024-03-23T05:38:24;27.63;;;3.97;;
45728;SDS011;31439;53.512;10.206;2024-03-23T05:40:56;16.83;;;3.40;;
45728;SDS011;31439;53.512;10.206;2024-03-23T05:45:57;27.17;;;4.50;;
45728;SDS011;31439;53.512;10.206;2024-03-23T05:48:24;26.65;;;4.05;;
45728;SDS011;31439;53.512;10.206;2024-03-23T05:50:55;23.27;;;3.97;;
45728;SDS011;31439;53.512;10.206;2024-03-23T05:53:21;26.80;;;4.85;;
45728;SDS011;31439;53.512;10.206;2024-03-23T05:55:46;30.00;;;4.43;;
45728;SDS011;31439;53.512;10.206;2024-03-23T05:58:14;24.00;;;4.13;;
45728;SDS011;31439;53.512;10.206;2024-03-23T06:00:40;20.13;;;3.67;;
45728;SDS011;31439;53.512;10.206;2024-03-23T06:03:07;18.73;;;3.95;;
45728;SDS011;31439;53.512;10.206;2024-03-23T06:05:33;23.38;;;4.38;;
45728;SDS011;31439;53.512;10.206;2024-03-23T06:07:59;18.85;;;3.72;;
45728;SDS011;31439;53.512;10.206;2024-03-23T06:10:25;17.80;;;3.67;;
45728;SDS011;31439;53.512;10.206;2024-03-23T06:12:50;27.70;;;4.45;;
45728;SDS011;31439;53.512;10.206;2024-03-23T06:15:17;23.42;;;4.43;;
45728;SDS011;31439;53.512;10.206;2024-03-23T06:17:44;20.50;;;3.80;;
45728;SDS011;31439;53.512;10.206;2024-03-23T06:20:09;21.27;;;4.28;;
45728;SDS011;31439;53.512;10.206;2024-03-23T06:22:35;16.85;;;4.20;;
45728;SDS011;31439;53.512;10.206;2024-03-23T06:25:01;24.55;;;4.45;;
45728;SDS011;31439;53.512;10.206;2024-03-23T06:27:27;18.80;;;4.00;;
45728;SDS011;31439;53.512;10.206;2024-03-23T06:29:54;27.25;;;4.80;;
45728;SDS011;31439;53.512;10.206;2024-03-23T06:32:20;18.55;;;4.13;;
45728;SDS011;31439;53.512;10.206;2024-03-23T06:34:46;24.48;;;5.00;;
45728;SDS011;31439;53.512;10.206;2024-03-23T06:37:12;20.48;;;4.20;;
45728;SDS011;31439;53.512;10.206;2024-03-23T06:39:37;23.75;;;4.10;;
45728;SDS011;31439;53.512;10.206;2024-03-23T06:42:04;25.40;;;4.50;;
45728;SDS011;31439;53.512;10.206;2024-03-23T06:44:29;19.08;;;3.80;;
45728;SDS011;31439;53.512;10.206;2024-03-23T06:46:55;21.52;;;3.90;;
45728;SDS011;31439;53.512;10.206;2024-03-23T06:49:22;20.52;;;4.13;;
45728;SDS011;31439;53.512;10.206;2024-03-23T06:51:48;23.98;;;4.43;;
45728;SDS011;31439;53.512;10.206;2024-03-23T06:54:14;28.33;;;4.22;;
45728;SDS011;31439;53.512;10.206;2024-03-23T06:56:41;23.88;;;3.92;;
45728;SDS011;31439;53.512;10.206;2024-03-23T06:59:07;26.67;;;5.28;;
45728;SDS011;31439;53.512;10.206;2024-03-23T07:01:33;23.25;;;4.70;;
45728;SDS011;31439;53.512;10.206;2024-03-23T07:04:00;25.38;;;4.40;;
45728;SDS011;31439;53.512;10.206;2024-03-23T07:06:25;26.20;;;4.47;;
45728;SDS011;31439;53.512;10.206;2024-03-23T07:08:52;22.38;;;4.35;;
45728;SDS011;31439;53.512;10.206;2024-03-23T07:11:18;26.00;;;4.07;;
45728;SDS011;31439;53.512;10.206;2024-03-23T07:13:45;25.75;;;4.45;;
45728;SDS011;31439;53.512;10.206;2024-03-23T07:16:11;29.52;;;4.88;;
45728;SDS011;31439;53.512;10.206;2024-03-23T07:18:38;27.48;;;4.40;;
45728;SDS011;31439;53.512;10.206;2024-03-23T07:21:03;24.08;;;3.90;;
45728;SDS011;31439;53.512;10.206;2024-03-23T07:23:31;20.33;;;4.57;;
45728;SDS011;31439;53.512;10.206;2024-03-23T07:28:23;18.48;;;3.95;;
45728;SDS011;31439;53.512;10.206;2024-03-23T07:31:00;21.90;;;4.32;;
45728;SDS011;31439;53.512;10.206;2024-03-23T07:33:26;24.73;;;5.00;;
45728;SDS011;31439;53.512;10.206;2024-03-23T07:35:51;27.75;;;5.15;;
45728;SDS011;31439;53.512;10.206;2024-03-23T07:38:18;23.40;;;4.45;;
45728;SDS011;31439;53.512;10.206;2024-03-23T07:40:44;20.88;;;4.00;;
45728;SDS011;31439;53.512;10.206;2024-03-23T07:43:10;18.83;;;3.42;;
45728;SDS011;31439;53.512;10.206;2024-03-23T07:45:36;22.20;;;4.03;;
45728;SDS011;31439;53.512;10.206;2024-03-23T07:48:03;19.83;;;3.92;;
45728;SDS011;31439;53.512;10.206;2024-03-23T07:50:29;19.58;;;4.43;;
45728;SDS011;31439;53.512;10.206;2024-03-23T07:52:54;18.13;;;3.80;;
45728;SDS011;31439;53.512;10.206;2024-03-23T07:55:20;16.35;;;3.80;;
45728;SDS011;31439;53.512;10.206;2024-03-23T07:57:46;19.00;;;3.60;;
45728;SDS011;31439;53.512;10.206;2024-03-23T08:00:12;17.00;;;3.85;;
45728;SDS011;31439;53.512;10.206;2024-03-23T08:02:38;18.60;;;4.07;;
45728;SDS011;31439;53.512;10.206;2024-03-23T08:05:04;14.70;;;3.50;;
45728;SDS011;31439;53.512;10.206;2024-03-23T08:07:30;21.45;;;3.95;;
45728;SDS011;31439;53.512;10.206;2024-03-23T08:09:56;18.85;;;3.88;;
45728;SDS011;31439;53.512;10.206;2024-03-23T08:12:24;20.48;;;4.25;;
45728;SDS011;31439;53.512;10.206;2024-03-23T08:14:49;19.83;;;4.25;;
45728;SDS011;31439;53.512;10.206;2024-03-23T08:17:15;17.20;;;3.90;;
45728;SDS011;31439;53.512;10.206;2024-03-23T08:19:41;18.77;;;3.90;;
45728;SDS011;31439;53.512;10.206;2024-03-23T08:22:06;20.00;;;4.22;;
45728;SDS011;31439;53.512;10.206;2024-03-23T08:24:32;17.48;;;4.07;;
45728;SDS011;31439;53.512;10.206;2024-03-23T08:26:59;19.95;;;4.57;;
45728;SDS011;31439;53.512;10.206;2024-03-23T08:29:25;20.40;;;4.30;;
45728;SDS011;31439;53.512;10.206;2024-03-23T08:31:51;19.27;;;3.72;;
45728;SDS011;31439;53.512;10.206;2024-03-23T08:34:17;20.65;;;3.78;;
45728;SDS011;31439;53.512;10.206;2024-03-23T08:36:43;16.02;;;3.50;;
45728;SDS011;31439;53.512;10.206;2024-03-23T08:39:09;14.05;;;3.20;;
45728;SDS011;31439;53.512;10.206;2024-03-23T08:41:34;17.45;;;3.75;;
45728;SDS011;31439;53.512;10.206;2024-03-23T08:44:00;18.42;;;3.70;;
45728;SDS011;31439;53.512;10.206;2024-03-23T08:46:26;22.50;;;4.25;;
45728;SDS011;31439;53.512;10.206;2024-03-23T08:48:52;21.38;;;4.43;;
45728;SDS011;31439;53.512;10.206;2024-03-23T08:51:18;19.83;;;4.20;;
45728;SDS011;31439;53.512;10.206;2024-03-23T08:53:44;15.70;;;3.15;;
45728;SDS011;31439;53.512;10.206;2024-03-23T08:56:10;18.83;;;3.83;;
45728;SDS011;31439;53.512;10.206;2024-03-23T08:58:37;18.17;;;3.67;;
45728;SDS011;31439;53.512;10.206;2024-03-23T09:03:30;17.23;;;3.83;;
45728;SDS011;31439;53.512;10.206;2024-03-23T09:05:56;15.93;;;4.07;;
45728;SDS011;31439;53.512;10.206;2024-03-23T09:08:23;14.07;;;3.22;;
45728;SDS011;31439;53.512;10.206;2024-03-23T09:10:48;18.83;;;3.80;;
45728;SDS011;31439;53.512;10.206;2024-03-23T09:13:14;16.40;;;3.22;;
45728;SDS011;31439;53.512;10.206;2024-03-23T09:15:50;13.95;;;3.28;;
45728;SDS011;31439;53.512;10.206;2024-03-23T09:18:21;19.85;;;2.80;;
45728;SDS011;31439;53.512;10.206;2024-03-23T09:20:47;21.80;;;3.30;;
45728;SDS011;31439;53.512;10.206;2024-03-23T09:23:13;14.32;;;3.30;;
45728;SDS011;31439;53.512;10.206;2024-03-23T09:25:39;11.55;;;2.65;;
45728;SDS011;31439;53.512;10.206;2024-03-23T09:28:05;14.93;;;3.03;;
45728;SDS011;31439;53.512;10.206;2024-03-23T09:30:33;13.32;;;2.80;;
45728;SDS011;31439;53.512;10.206;2024-03-23T09:32:59;10.90;;;2.65;;
45728;SDS011;31439;53.512;10.206;2024-03-23T09:35:26;16.90;;;3.58;;
45728;SDS011;31439;53.512;10.206;2024-03-23T09:37:52;13.57;;;3.00;;
45728;SDS011;31439;53.512;10.206;2024-03-23T09:40:18;17.33;;;3.28;;
45728;SDS011;31439;53.512;10.206;2024-03-23T09:42:43;15.38;;;3.25;;
45728;SDS011;31439;53.512;10.206;2024-03-23T09:45:22;10.73;;;2.70;;
45728;SDS011;31439;53.512;10.206;2024-03-23T09:47:52;14.93;;;2.60;;
45728;SDS011;31439;53.512;10.206;2024-03-23T09:50:18;9.75;;;2.47;;
45728;SDS011;31439;53.512;10.206;2024-03-23T09:52:45;14.43;;;2.33;;
45728;SDS011;31439;53.512;10.206;2024-03-23T09:55:11;8.77;;;2.58;;
45728;SDS011;31439;53.512;10.206;2024-03-23T09:57:38;12.00;;;2.60;;
45728;SDS011;31439;53.512;10.206;2024-03-23T10:00:05;11.80;;;2.20;;
45728;SDS011;31439;53.512;10.206;2024-03-23T10:02:31;10.77;;;2.42;;
45728;SDS011;31439;53.512;10.206;2024-03-23T10:04:58;12.63;;;2.85;;
45728;SDS011;31439;53.512;10.206;2024-03-23T10:07:25;15.73;;;2.70;;
45728;SDS011;31439;53.512;10.206;2024-03-23T10:09:53;10.98;;;2.30;;
45728;SDS011;31439;53.512;10.206;2024-03-23T10:12:19;9.48;;;2.28;;
45728;SDS011;31439;53.512;10.206;2024-03-23T10:14:45;12.15;;;2.65;;
45728;SDS011;31439;53.512;10.206;2024-03-23T10:17:12;8.70;;;2.55;;
45728;SDS011;31439;53.512;10.206;2024-03-23T10:19:45;10.85;;;2.17;;
45728;SDS011;31439;53.512;10.206;2024-03-23T10:22:17;10.90;;;1.98;;
45728;SDS011;31439;53.512;10.206;2024-03-23T10:24:44;12.02;;;2.53;;
45728;SDS011;31439;53.512;10.206;2024-03-23T10:27:13;9.13;;;2.20;;
45728;SDS011;31439;53.512;10.206;2024-03-23T10:29:41;13.23;;;2.28;;
45728;SDS011;31439;53.512;10.206;2024-03-23T10:32:08;9.18;;;2.13;;
45728;SDS011;31439;53.512;10.206;2024-03-23T10:34:38;9.45;;;2.45;;
45728;SDS011;31439;53.512;10.206;2024-03-23T10:37:04;10.00;;;2.20;;
45728;SDS011;31439;53.512;10.206;2024-03-23T10:39:34;10.25;;;2.00;;
45728;SDS011;31439;53.512;10.206;2024-03-23T10:42:04;12.52;;;2.20;;
45728;SDS011;31439;53.512;10.206;2024-03-23T10:44:32;13.13;;;2.55;;
45728;SDS011;31439;53.512;10.206;2024-03-23T10:46:58;8.70;;;2.15;;
45728;SDS011;31439;53.512;10.206;2024-03-23T10:49:34;10.57;;;1.98;;
45728;SDS011;31439;53.512;10.206;2024-03-23T10:54:30;11.55;;;2.40;;
45728;SDS011;31439;53.512;10.206;2024-03-23T10:59:24;10.88;;;2.00;;
45728;SDS011;31439;53.512;10.206;2024-03-23T11:01:54;15.57;;;3.05;;
45728;SDS011;31439;53.512;10.206;2024-03-23T11:04:33;11.25;;;2.00;;
45728;SDS011;31439;53.512;10.206;2024-03-23T11:07:00;7.45;;;2.05;;
45728;SDS011;31439;53.512;10.206;2024-03-23T11:10:01;9.75;;;2.20;;
45728;SDS011;31439;53.512;10.206;2024-03-23T11:12:47;10.52;;;2.10;;
45728;SDS011;31439;53.512;10.206;2024-03-23T11:15:13;6.53;;;1.60;;
45728;SDS011;31439;53.512;10.206;2024-03-23T11:17:39;13.68;;;2.38;;
45728;SDS011;31439;53.512;10.206;2024-03-23T11:20:05;12.85;;;2.47;;
45728;SDS011;31439;53.512;10.206;2024-03-23T11:25:15;16.42;;;2.45;;
45728;SDS011;31439;53.512;10.206;2024-03-23T11:27:49;10.63;;;2.22;;
45728;SDS011;31439;53.512;10.206;2024-03-23T11:30:19;11.60;;;2.25;;
45728;SDS011;31439;53.512;10.206;2024-03-23T11:32:48;8.23;;;1.77;;
45728;SDS011;31439;53.512;10.206;2024-03-23T11:35:33;5.22;;;1.20;;
45728;SDS011;31439;53.512;10.206;2024-03-23T11:43:30;6.75;;;1.75;;
45728;SDS011;31439;53.512;10.206;2024-03-23T11:45:56;6.72;;;1.35;;
45728;SDS011;31439;53.512;10.206;2024-03-23T11:48:23;7.65;;;1.88;;
45728;SDS011;31439;53.512;10.206;2024-03-23T11:50:49;7.28;;;1.80;;
45728;SDS011;31439;53.512;10.206;2024-03-23T11:53:22;5.97;;;1.85;;
45728;SDS011;31439;53.512;10.206;2024-03-23T11:55:50;7.57;;;2.00;;
45728;SDS011;31439;53.512;10.206;2024-03-23T11:58:17;6.22;;;2.08;;
45728;SDS011;31439;53.512;10.206;2024-03-23T12:03:22;9.77;;;1.65;;
45728;SDS011;31439;53.512;10.206;2024-03-23T12:05:52;8.80;;;1.92;;
45728;SDS011;31439;53.512;10.206;2024-03-23T12:08:28;5.53;;;1.55;;
45728;SDS011;31439;53.512;10.206;2024-03-23T12:11:07;7.95;;;1.80;;
45728;SDS011;31439;53.512;10.206;2024-03-23T12:13:34;6.05;;;1.63;;
45728;SDS011;31439;53.512;10.206;2024-03-23T12:18:35;4.35;;;1.42;;
45728;SDS011;31439;53.512;10.206;2024-03-23T12:21:05;10.75;;;1.88;;
45728;SDS011;31439;53.512;10.206;2024-03-23T12:23:31;4.70;;;1.30;;
45728;SDS011;31439;53.512;10.206;2024-03-23T12:25:57;5.35;;;1.77;;
45728;SDS011;31439;53.512;10.206;2024-03-23T12:28:23;8.85;;;1.42;;
45728;SDS011;31439;53.512;10.206;2024-03-23T12:30:49;4.00;;;1.10;;
45728;SDS011;31439;53.512;10.206;2024-03-23T12:33:15;3.50;;;1.10;;
45728;SDS011;31439;53.512;10.206;2024-03-23T12:35:41;5.20;;;1.25;;
45728;SDS011;31439;53.512;10.206;2024-03-23T12:38:07;3.30;;;0.90;;
45728;SDS011;31439;53.512;10.206;2024-03-23T12:40:33;3.25;;;1.08;;
45728;SDS011;31439;53.512;10.206;2024-03-23T12:42:59;5.93;;;1.40;;
45728;SDS011;31439;53.512;10.206;2024-03-23T12:45:25;3.05;;;1.63;;
45728;SDS011;31439;53.512;10.206;2024-03-23T12:47:51;2.92;;;0.98;;
45728;SDS011;31439;53.512;10.206;2024-03-23T12:50:18;4.78;;;0.90;;
45728;SDS011;31439;53.512;10.206;2024-03-23T12:53:04;4.15;;;1.13;;
45728;SDS011;31439;53.512;10.206;2024-03-23T13:23:05;6.25;;;1.20;;
45728;SDS011;31439;53.512;10.206;2024-03-23T13:33:06;6.07;;;1.38;;
45728;SDS011;31439;53.512;10.206;2024-03-23T13:53:39;5.30;;;1.13;;
45728;SDS011;31439;53.512;10.206;2024-03-23T13:56:13;4.55;;;1.17;;
45728;SDS011;31439;53.512;10.206;2024-03-23T14:02:30;5.03;;;1.27;;
45728;SDS011;31439;53.512;10.206;2024-03-23T14:18:59;2.60;;;1.10;;
45728;SDS011;31439;53.512;10.206;2024-03-23T14:25:14;4.63;;;1.30;;
45728;SDS011;31439;53.512;10.206;2024-03-23T14:28:02;4.22;;;1.42;;
45728;SDS011;31439;53.512;10.206;2024-03-23T14:30:39;2.33;;;0.90;;
45728;SDS011;31439;53.512;10.206;2024-03-23T14:33:07;5.28;;;1.20;;
45728;SDS011;31439;53.512;10.206;2024-03-23T14:35:41;3.75;;;0.98;;
45728;SDS011;31439;53.512;10.206;2024-03-23T14:38:09;4.57;;;1.40;;
45728;SDS011;31439;53.512;10.206;2024-03-23T14:40:48;5.00;;;1.23;;
45728;SDS011;31439;53.512;10.206;2024-03-23T14:43:18;3.47;;;1.20;;
45728;SDS011;31439;53.512;10.206;2024-03-23T14:48:35;2.47;;;0.95;;
45728;SDS011;31439;53.512;10.206;2024-03-23T14:51:01;7.53;;;1.52;;
45728;SDS011;31439;53.512;10.206;2024-03-23T14:53:33;5.82;;;1.33;;
45728;SDS011;31439;53.512;10.206;2024-03-23T14:56:15;5.38;;;1.60;;
45728;SDS011;31439;53.512;10.206;2024-03-23T14:58:42;6.00;;;1.60;;
45728;SDS011;31439;53.512;10.206;2024-03-23T15:01:10;6.60;;;1.35;;
45728;SDS011;31439;53.512;10.206;2024-03-23T15:03:39;6.07;;;1.30;;
45728;SDS011;31439;53.512;10.206;2024-03-23T15:06:09;7.93;;;1.67;;
45728;SDS011;31439;53.512;10.206;2024-03-23T15:08:38;6.18;;;1.60;;
45728;SDS011;31439;53.512;10.206;2024-03-23T15:11:07;6.70;;;1.60;;
45728;SDS011;31439;53.512;10.206;2024-03-23T15:13:36;5.68;;;1.33;;
45728;SDS011;31439;53.512;10.206;2024-03-23T16:31:19;4.43;;;1.90;;
45728;SDS011;31439;53.512;10.206;2024-03-23T16:44:41;4.15;;;1.10;;
45728;SDS011;31439;53.512;10.206;2024-03-23T18:52:39;6.00;;;2.30;;
45728;SDS011;31439;53.512;10.206;2024-03-23T18:55:52;6.82;;;2.22;;
45728;SDS011;31439;53.512;10.206;2024-03-23T19:46:43;7.55;;;2.40;;
45728;SDS011;31439;53.512;10.206;2024-03-23T19:49:16;5.53;;;2.42;;
45728;SDS011;31439;53.512;10.206;2024-03-23T19:51:50;10.57;;;2.30;;
45728;SDS011;31439;53.512;10.206;2024-03-23T19:56:43;4.28;;;2.22;;
45728;SDS011;31439;53.512;10.206;2024-03-23T20:02:25;8.52;;;2.70;;
45728;SDS011;31439;53.512;10.206;2024-03-23T20:04:55;6.45;;;2.40;;
45728;SDS011;31439;53.512;10.206;2024-03-23T20:17:35;9.88;;;3.10;;
45728;SDS011;31439;53.512;10.206;2024-03-23T20:20:21;6.13;;;2.40;;
45728;SDS011;31439;53.512;10.206;2024-03-23T20:23:14;4.85;;;2.13;;
45728;SDS011;31439;53.512;10.206;2024-03-23T20:25:52;5.88;;;2.47;;
45728;SDS011;31439;53.512;10.206;2024-03-23T20:28:20;7.82;;;2.20;;
45728;SDS011;31439;53.512;10.206;2024-03-23T20:34:22;6.72;;;2.70;;
45728;SDS011;31439;53.512;10.206;2024-03-23T20:36:48;7.03;;;2.40;;
45728;SDS011;31439;53.512;10.206;2024-03-23T20:39:14;8.27;;;2.63;;
45728;SDS011;31439;53.512;10.206;2024-03-23T20:41:40;6.55;;;2.67;;
45728;SDS011;31439;53.512;10.206;2024-03-23T20:44:06;9.63;;;2.50;;
45728;SDS011;31439;53.512;10.206;2024-03-23T20:46:32;6.95;;;2.75;;
45728;SDS011;31439;53.512;10.206;2024-03-23T20:48:58;10.95;;;2.50;;
45728;SDS011;31439;53.512;10.206;2024-03-23T20:51:24;7.72;;;2.30;;
45728;SDS011;31439;53.512;10.206;2024-03-23T20:53:50;6.85;;;2.80;;
45728;SDS011;31439;53.512;10.206;2024-03-23T20:56:16;6.88;;;2.50;;
45728;SDS011;31439;53.512;10.206;2024-03-23T20:58:43;4.43;;;2.15;;
45728;SDS011;31439;53.512;10.206;2024-03-23T21:01:08;7.88;;;2.25;;
45728;SDS011;31439;53.512;10.206;2024-03-23T21:03:34;8.32;;;2.83;;
45728;SDS011;31439;53.512;10.206;2024-03-23T21:06:01;5.13;;;2.33;;
45728;SDS011;31439;53.512;10.206;2024-03-23T21:08:29;8.35;;;2.85;;
45728;SDS011;31439;53.512;10.206;2024-03-23T21:10:55;7.18;;;2.80;;
45728;SDS011;31439;53.512;10.206;2024-03-23T21:13:21;4.40;;;2.20;;
45728;SDS011;31439;53.512;10.206;2024-03-23T21:15:48;9.65;;;2.58;;
45728;SDS011;31439;53.512;10.206;2024-03-23T21:18:14;7.72;;;2.40;;
45728;SDS011;31439;53.512;10.206;2024-03-23T21:20:40;6.60;;;2.50;;
45728;SDS011;31439;53.512;10.206;2024-03-23T21:23:06;10.32;;;2.47;;
45728;SDS011;31439;53.512;10.206;2024-03-23T21:25:32;8.43;;;2.55;;
45728;SDS011;31439;53.512;10.206;2024-03-23T21:27:58;7.60;;;2.40;;
45728;SDS011;31439;53.512;10.206;2024-03-23T21:30:24;4.85;;;2.17;;
45728;SDS011;31439;53.512;10.206;2024-03-23T21:32:50;9.30;;;2.85;;
45728;SDS011;31439;53.512;10.206;2024-03-23T21:35:16;9.57;;;2.97;;
45728;SDS011;31439;53.512;10.206;2024-03-23T21:37:42;6.80;;;3.08;;
45728;SDS011;31439;53.512;10.206;2024-03-23T21:40:08;7.35;;;2.78;;
45728;SDS011;31439;53.512;10.206;2024-03-23T21:42:35;9.10;;;2.47;;
45728;SDS011;31439;53.512;10.206;2024-03-23T21:45:01;7.38;;;2.60;;